createdAt,value
2023-01-19T00:00:26.998Z,100.00
2023-01-19T00:03:29.842Z,100.00
2023-01-19T00:06:32.737Z,100.00
2023-01-19T00:09:38.305Z,100.00
2023-01-19T00:12:40.815Z,100.00
2023-01-19T00:15:43.737Z,100.00
2023-01-19T00:18:46.609Z,100.00
2023-01-19T00:21:49.511Z,100.00
2023-01-19T00:24:51.959Z,100.00
2023-01-19T00:27:55.573Z,100.00
2023-01-19T00:31:00.155Z,100.00
2023-01-19T00:34:03.655Z,100.00
2023-01-19T00:37:07.365Z,100.00
2023-01-19T00:40:10.913Z,100.00
2023-01-19T00:43:13.382Z,100.00
2023-01-19T00:46:16.288Z,100.00
2023-01-19T00:49:19.219Z,100.00
2023-01-19T00:52:22.047Z,100.00
2023-01-19T00:55:24.542Z,100.00
2023-01-19T00:58:27.397Z,100.00
2023-01-19T01:01:45.296Z,100.00
2023-01-19T01:04:54.717Z,100.00
2023-01-19T01:07:57.333Z,100.00
2023-01-19T01:11:00.802Z,100.00
2023-01-19T01:14:03.254Z,100.00
2023-01-19T01:17:06.323Z,100.00
2023-01-19T01:20:09.618Z,100.00
2023-01-19T01:23:13.083Z,100.00
2023-01-19T01:26:15.571Z,100.00
2023-01-19T01:29:18.537Z,100.00
2023-01-19T01:32:20.972Z,100.00
2023-01-19T01:35:23.733Z,100.00
2023-01-19T01:38:26.369Z,100.00
2023-01-19T01:41:29.238Z,100.00
2023-01-19T01:44:50.164Z,100.00
2023-01-19T01:47:54.072Z,100.00
2023-01-19T01:51:24.476Z,100.00
2023-01-19T01:54:29.852Z,100.00
2023-01-19T01:57:35.665Z,100.00
2023-01-19T02:00:57.665Z,100.00
2023-01-19T02:04:00.672Z,100.00
2023-01-19T02:07:22.006Z,100.00
2023-01-19T02:10:43.442Z,100.00
2023-01-19T02:13:47.021Z,100.00
2023-01-19T02:16:49.838Z,100.00
2023-01-19T02:19:52.413Z,100.00
2023-01-19T02:22:55.997Z,100.00
2023-01-19T02:26:00.113Z,100.00
2023-01-19T02:29:06.594Z,100.00
2023-01-19T02:32:09.439Z,100.00
2023-01-19T02:35:13.099Z,100.00
2023-01-19T02:38:16.493Z,100.00
2023-01-19T02:41:20.602Z,100.00
2023-01-19T02:44:23.699Z,100.00
2023-01-19T02:47:26.629Z,100.00
2023-01-19T02:50:49.199Z,100.00
2023-01-19T02:54:30.702Z,100.00
2023-01-19T02:57:48.581Z,100.00
2023-01-19T03:00:52.630Z,100.00
2023-01-19T03:04:14.600Z,100.00
2023-01-19T03:07:45.061Z,100.00
2023-01-19T03:11:05.026Z,100.00
2023-01-19T03:14:11.423Z,100.00
2023-01-19T03:17:17.308Z,100.00
2023-01-19T03:20:24.710Z,100.00
2023-01-19T03:23:31.018Z,100.00
2023-01-19T03:26:39.091Z,100.00
2023-01-19T03:29:45.721Z,100.00
2023-01-19T03:32:52.835Z,100.00
2023-01-19T03:36:03.658Z,100.00
2023-01-19T03:39:08.236Z,100.00
2023-01-19T03:42:15.002Z,100.00
2023-01-19T03:45:18.459Z,100.00
2023-01-19T03:48:21.651Z,100.00
2023-01-19T03:51:24.673Z,100.00
2023-01-19T03:54:27.750Z,100.00
2023-01-19T03:57:30.956Z,100.00
2023-01-19T04:00:36.587Z,100.00
2023-01-19T04:03:39.627Z,100.00
2023-01-19T04:06:42.844Z,100.00
2023-01-19T04:09:45.794Z,100.00
2023-01-19T04:12:48.618Z,100.00
2023-01-19T04:15:51.510Z,100.00
2023-01-19T04:18:54.170Z,100.00
2023-01-19T04:21:57.160Z,100.00
2023-01-19T04:24:59.697Z,100.00
2023-01-19T04:28:02.674Z,100.00
2023-01-19T04:31:06.527Z,100.00
2023-01-19T04:34:10.207Z,100.00
2023-01-19T04:37:12.731Z,100.00
2023-01-19T04:40:15.769Z,100.00
2023-01-19T04:43:19.802Z,100.00
2023-01-19T04:46:22.674Z,100.00
2023-01-19T04:49:25.350Z,100.00
2023-01-19T04:52:35.088Z,100.00
2023-01-19T04:55:38.836Z,100.00
2023-01-19T04:58:41.948Z,100.00
2023-01-19T05:01:44.542Z,100.00
2023-01-19T05:04:47.324Z,100.00
2023-01-19T05:07:49.842Z,100.00
2023-01-19T05:10:52.848Z,100.00
2023-01-19T05:13:55.561Z,100.00
2023-01-19T05:16:58.696Z,100.00
2023-01-19T05:20:01.216Z,100.00
2023-01-19T05:23:04.261Z,100.00
2023-01-19T05:26:07.652Z,100.00
2023-01-19T05:29:11.901Z,100.00
2023-01-19T05:32:14.780Z,100.00
2023-01-19T05:35:20.210Z,100.00
2023-01-19T05:38:34.587Z,100.00
2023-01-19T05:41:37.936Z,100.00
2023-01-19T05:44:40.447Z,100.00
2023-01-19T05:47:43.325Z,100.00
2023-01-19T05:50:45.871Z,100.00
2023-01-19T05:53:48.721Z,100.00
2023-01-19T05:56:51.167Z,100.00
2023-01-19T05:59:54.042Z,100.00
2023-01-19T06:02:56.652Z,100.00
2023-01-19T06:06:00.300Z,100.00
2023-01-19T06:09:03.045Z,100.00
2023-01-19T06:12:06.391Z,100.00
2023-01-19T06:15:09.078Z,100.00
2023-01-19T06:18:13.094Z,100.00
2023-01-19T06:21:15.813Z,100.00
2023-01-19T06:24:19.224Z,100.00
2023-01-19T06:27:22.075Z,100.00
2023-01-19T06:30:25.067Z,100.00
2023-01-19T06:33:28.099Z,100.00
2023-01-19T06:36:31.016Z,100.00
2023-01-19T06:39:33.473Z,100.00
2023-01-19T06:42:36.379Z,100.00
2023-01-19T06:45:39.386Z,100.00
2023-01-19T06:48:42.311Z,100.00
2023-01-19T06:51:44.919Z,100.00
2023-01-19T06:54:47.728Z,100.00
2023-01-19T06:57:59.536Z,100.00
2023-01-19T07:01:04.208Z,100.00
2023-01-19T07:04:06.939Z,100.00
2023-01-19T07:07:09.766Z,100.00
2023-01-19T07:10:15.629Z,100.00
2023-01-19T07:13:18.853Z,100.00
2023-01-19T07:16:22.107Z,100.00
2023-01-19T07:19:25.025Z,100.00
2023-01-19T07:22:27.797Z,100.00
2023-01-19T07:25:30.741Z,100.00
2023-01-19T07:28:33.288Z,100.00
2023-01-19T07:31:36.167Z,100.00
2023-01-19T07:34:38.752Z,100.00
2023-01-19T07:37:41.636Z,100.00
2023-01-19T07:40:44.526Z,100.00
2023-01-19T07:43:47.365Z,100.00
2023-01-19T07:46:51.207Z,100.00
2023-01-19T07:49:54.262Z,100.00
2023-01-19T07:52:57.052Z,100.00
2023-01-19T07:56:00.118Z,100.00
2023-01-19T07:59:03.086Z,100.00
2023-01-19T08:02:07.892Z,100.00
2023-01-19T08:05:10.882Z,100.00
2023-01-19T08:08:13.452Z,100.00
2023-01-19T08:11:16.840Z,100.00
2023-01-19T08:14:19.360Z,100.00
2023-01-19T08:17:22.207Z,100.00
2023-01-19T08:20:25.359Z,100.00
2023-01-19T08:23:28.398Z,100.00
2023-01-19T08:26:32.951Z,100.00
2023-01-19T08:29:35.797Z,100.00
2023-01-19T08:32:38.499Z,100.00
2023-01-19T08:35:43.766Z,100.00
2023-01-19T08:38:46.638Z,100.00
2023-01-19T08:41:50.654Z,100.00
2023-01-19T08:44:58.070Z,100.00
2023-01-19T08:48:01.739Z,100.00
2023-01-19T08:51:04.393Z,100.00
2023-01-19T08:54:07.598Z,100.00
2023-01-19T08:57:10.102Z,100.00
2023-01-19T09:00:13.689Z,100.00
2023-01-19T09:03:16.562Z,100.00
2023-01-19T09:06:19.589Z,100.00
2023-01-19T09:09:22.076Z,100.00
2023-01-19T09:12:24.855Z,100.00
2023-01-19T09:15:27.343Z,100.00
2023-01-19T09:18:30.463Z,100.00
2023-01-19T09:21:33.117Z,100.00
2023-01-19T09:24:36.778Z,100.00
2023-01-19T09:27:39.261Z,100.00
2023-01-19T09:30:43.462Z,100.00
2023-01-19T09:33:45.967Z,100.00
2023-01-19T09:36:48.778Z,100.00
2023-01-19T09:39:51.851Z,100.00
2023-01-19T09:43:02.017Z,100.00
2023-01-19T09:46:35.434Z,100.00
2023-01-19T09:49:41.812Z,100.00
2023-01-19T09:52:48.954Z,100.00
2023-01-19T09:55:51.871Z,100.00
2023-01-19T09:58:54.407Z,100.00
2023-01-19T10:02:28.277Z,100.00
2023-01-19T10:05:35.989Z,100.00
2023-01-19T10:08:51.342Z,100.00
2023-01-19T10:12:21.688Z,100.00
2023-01-19T10:16:22.861Z,100.00
2023-01-19T10:19:29.802Z,100.00
2023-01-19T10:22:33.405Z,100.00
2023-01-19T10:25:36.191Z,100.00
2023-01-19T10:28:38.948Z,100.00
2023-01-19T10:31:42.515Z,100.00
2023-01-19T10:34:45.238Z,100.00
2023-01-19T10:37:48.496Z,100.00
2023-01-19T10:40:57.033Z,100.00
2023-01-19T10:44:04.384Z,100.00
2023-01-19T10:47:15.529Z,100.00
2023-01-19T10:50:31.750Z,100.00
2023-01-19T10:53:34.272Z,100.00
2023-01-19T10:56:38.597Z,100.00
2023-01-19T10:59:44.114Z,100.00
2023-01-19T11:02:50.874Z,100.00
2023-01-19T11:05:53.403Z,100.00
2023-01-19T11:09:14.281Z,100.00
2023-01-19T11:12:22.125Z,100.00
2023-01-19T11:15:31.207Z,100.00
2023-01-19T11:18:36.130Z,100.00
2023-01-19T11:21:39.007Z,100.00
2023-01-19T11:24:43.577Z,100.00
2023-01-19T11:27:51.416Z,100.00
2023-01-19T11:31:01.710Z,100.00
2023-01-19T11:34:06.151Z,100.00
2023-01-19T11:37:20.878Z,100.00
2023-01-19T11:40:23.985Z,100.00
2023-01-19T11:43:47.393Z,100.00
2023-01-19T11:46:57.254Z,100.00
2023-01-19T11:50:06.593Z,100.00
2023-01-19T11:53:24.288Z,100.00
2023-01-19T11:56:29.030Z,100.00
2023-01-19T11:59:31.964Z,100.00
2023-01-19T12:02:43.654Z,100.00
2023-01-19T12:05:49.333Z,100.00
2023-01-19T12:09:04.141Z,100.00
2023-01-19T12:12:10.720Z,100.00
2023-01-19T12:15:32.549Z,100.00
2023-01-19T12:18:45.496Z,100.00
2023-01-19T12:21:48.561Z,100.00
2023-01-19T12:25:12.316Z,100.00
2023-01-19T12:28:16.826Z,100.00
2023-01-19T12:31:22.324Z,100.00
2023-01-19T12:34:31.185Z,100.00
2023-01-19T12:37:37.669Z,100.00
2023-01-19T12:40:40.455Z,100.00
2023-01-19T12:43:43.563Z,100.00
2023-01-19T12:46:52.169Z,100.00
2023-01-19T12:50:05.866Z,100.00
2023-01-19T12:53:17.501Z,100.00
2023-01-19T12:56:20.893Z,100.00
2023-01-19T12:59:25.531Z,100.00
2023-01-19T13:02:28.358Z,100.00
2023-01-19T13:05:32.650Z,100.00
2023-01-19T13:08:59.413Z,100.00
2023-01-19T13:12:14.434Z,100.00
2023-01-19T13:15:36.652Z,100.00
2023-01-19T13:18:41.206Z,100.00
2023-01-19T13:21:49.539Z,100.00
2023-01-19T13:25:06.375Z,100.00
2023-01-19T13:28:10.453Z,100.00
2023-01-19T13:31:13.568Z,100.00
2023-01-19T13:34:26.494Z,100.00
2023-01-19T13:37:35.832Z,100.00
2023-01-19T13:40:39.055Z,100.00
2023-01-19T13:43:42.154Z,100.00
2023-01-19T13:46:46.003Z,100.00
2023-01-19T13:49:51.370Z,100.00
2023-01-19T13:52:55.704Z,100.00
2023-01-19T13:56:16.533Z,100.00
2023-01-19T13:59:19.367Z,100.00
2023-01-19T14:02:21.990Z,100.00
2023-01-19T14:05:36.131Z,100.00
2023-01-19T14:08:38.706Z,100.00
2023-01-19T14:11:41.527Z,100.00
2023-01-19T14:14:47.299Z,100.00
2023-01-19T14:18:08.758Z,100.00
2023-01-19T14:21:13.870Z,100.00
2023-01-19T14:24:19.223Z,100.00
2023-01-19T14:27:24.975Z,100.00
2023-01-19T14:30:28.062Z,100.00
2023-01-19T14:34:01.122Z,100.00
2023-01-19T14:37:06.502Z,100.00
2023-01-19T14:40:10.944Z,100.00
2023-01-19T14:43:14.038Z,100.00
2023-01-19T14:46:20.167Z,100.00
2023-01-19T14:49:30.403Z,100.00
2023-01-19T14:52:39.933Z,100.00
2023-01-19T14:55:47.063Z,100.00
2023-01-19T14:58:49.619Z,100.00
2023-01-19T15:01:52.780Z,100.00
2023-01-19T15:04:57.772Z,100.00
2023-01-19T15:08:02.316Z,100.00
2023-01-19T15:11:34.356Z,100.00
2023-01-19T15:14:37.247Z,100.00
2023-01-19T15:17:39.714Z,100.00
2023-01-19T15:20:42.850Z,100.00
2023-01-19T15:23:45.684Z,100.00
2023-01-19T15:26:48.583Z,100.00
2023-01-19T15:29:51.275Z,100.00
2023-01-19T15:32:54.046Z,100.00
2023-01-19T15:35:56.623Z,100.00
2023-01-19T15:38:59.552Z,100.00
2023-01-19T15:42:02.258Z,100.00
2023-01-19T15:45:31.430Z,100.00
2023-01-19T15:48:34.223Z,100.00
2023-01-19T15:51:37.111Z,100.00
2023-01-19T15:54:39.626Z,100.00
2023-01-19T15:57:42.491Z,100.00
2023-01-19T16:00:45.227Z,100.00
2023-01-19T16:03:48.327Z,100.00
2023-01-19T16:06:50.832Z,100.00
2023-01-19T16:09:53.728Z,100.00
2023-01-19T16:12:56.225Z,100.00
2023-01-19T16:16:08.078Z,100.00
2023-01-19T16:19:10.641Z,100.00
2023-01-19T16:22:13.597Z,100.00
2023-01-19T16:25:16.102Z,100.00
2023-01-19T16:28:18.921Z,100.00
2023-01-19T16:31:21.504Z,100.00
2023-01-19T16:34:25.444Z,100.00
2023-01-19T16:37:28.444Z,100.00
2023-01-19T16:40:31.232Z,100.00
2023-01-19T16:43:33.696Z,100.00
2023-01-19T16:46:39.507Z,100.00
2023-01-19T16:49:42.017Z,100.00
2023-01-19T16:52:45.913Z,100.00
2023-01-19T16:55:48.775Z,100.00
2023-01-19T16:58:55.796Z,100.00
2023-01-19T17:01:58.509Z,100.00
2023-01-19T17:05:01.430Z,100.00
2023-01-19T17:08:04.095Z,100.00
2023-01-19T17:11:11.177Z,100.00
2023-01-19T17:14:16.274Z,100.00
2023-01-19T17:17:19.079Z,100.00
2023-01-19T17:20:21.936Z,100.00
2023-01-19T17:23:24.984Z,100.00
2023-01-19T17:26:30.876Z,100.00
2023-01-19T17:29:33.890Z,100.00
2023-01-19T17:32:36.453Z,100.00
2023-01-19T17:35:39.540Z,100.00
2023-01-19T17:38:42.403Z,100.00
2023-01-19T17:41:45.552Z,100.00
2023-01-19T17:44:48.207Z,100.00
2023-01-19T17:47:51.166Z,100.00
2023-01-19T17:50:54.276Z,100.00
2023-01-19T17:53:58.130Z,100.00
2023-01-19T17:57:03.724Z,100.00
2023-01-19T18:00:08.759Z,100.00
2023-01-19T18:03:14.890Z,100.00
2023-01-19T18:06:18.053Z,100.00
2023-01-19T18:09:21.283Z,100.00
2023-01-19T18:12:24.591Z,100.00
2023-01-19T18:15:28.335Z,100.00
2023-01-19T18:18:31.604Z,100.00
2023-01-19T18:21:34.495Z,100.00
2023-01-19T18:24:37.626Z,100.00
2023-01-19T18:27:40.273Z,100.00
2023-01-19T18:30:43.478Z,100.00
2023-01-19T18:33:47.420Z,100.00
2023-01-19T18:36:50.505Z,100.00
2023-01-19T18:39:54.581Z,100.00
2023-01-19T18:42:57.740Z,100.00
2023-01-19T18:46:00.891Z,100.00
2023-01-19T18:49:05.667Z,100.00
2023-01-19T18:52:08.744Z,100.00
2023-01-19T18:55:11.720Z,100.00
2023-01-19T18:58:14.469Z,100.00
2023-01-19T19:01:31.498Z,100.00
2023-01-19T19:04:35.636Z,100.00
2023-01-19T19:07:38.784Z,100.00
2023-01-19T19:10:43.406Z,100.00
2023-01-19T19:13:46.539Z,100.00
2023-01-19T19:16:49.503Z,100.00
2023-01-19T19:19:52.552Z,100.00
2023-01-19T19:22:56.007Z,100.00
2023-01-19T19:26:04.858Z,100.00
2023-01-19T19:29:07.457Z,100.00
2023-01-19T19:32:10.788Z,100.00
2023-01-19T19:35:15.298Z,100.00
2023-01-19T19:38:18.342Z,100.00
2023-01-19T19:41:23.300Z,100.00
2023-01-19T19:44:26.493Z,100.00
2023-01-19T19:47:30.471Z,100.00
2023-01-19T19:50:35.233Z,100.00
2023-01-19T19:53:40.172Z,100.00
2023-01-19T19:56:44.333Z,100.00
2023-01-19T19:59:47.067Z,100.00
2023-01-19T20:02:50.690Z,100.00
2023-01-19T20:05:53.706Z,100.00
2023-01-19T20:08:56.771Z,100.00
2023-01-19T20:12:00.579Z,100.00
2023-01-19T20:15:03.473Z,100.00
2023-01-19T20:18:06.819Z,100.00
2023-01-19T20:21:33.019Z,100.00
2023-01-19T20:24:36.087Z,100.00
2023-01-19T20:27:38.843Z,100.00
2023-01-19T20:30:41.945Z,100.00
2023-01-19T20:33:45.224Z,100.00
2023-01-19T20:36:53.480Z,100.00
2023-01-19T20:39:56.203Z,100.00
2023-01-19T20:43:00.099Z,100.00
2023-01-19T20:46:05.981Z,100.00
2023-01-19T20:49:09.318Z,100.00
2023-01-19T20:52:12.239Z,100.00
2023-01-19T20:55:15.395Z,100.00
2023-01-19T20:58:18.072Z,100.00
2023-01-19T21:01:23.676Z,100.00
2023-01-19T21:04:26.554Z,100.00
2023-01-19T21:07:29.500Z,100.00
2023-01-19T21:10:32.555Z,100.00
2023-01-19T21:13:35.811Z,100.00
2023-01-19T21:16:38.500Z,100.00
2023-01-19T21:19:41.692Z,100.00
2023-01-19T21:22:44.571Z,100.00
2023-01-19T21:25:51.839Z,100.00
2023-01-19T21:28:54.513Z,100.00
2023-01-19T21:31:58.304Z,100.00
2023-01-19T21:35:00.963Z,100.00
2023-01-19T21:38:03.819Z,100.00
2023-01-19T21:41:08.084Z,100.00
2023-01-19T21:44:14.384Z,100.00
2023-01-19T21:47:16.937Z,100.00
2023-01-19T21:50:19.904Z,100.00
2023-01-19T21:53:22.382Z,100.00
2023-01-19T21:56:25.790Z,100.00
2023-01-19T21:59:28.615Z,100.00
2023-01-19T22:02:38.652Z,100.00
2023-01-19T22:05:41.910Z,100.00
2023-01-19T22:08:46.529Z,99.80
2023-01-19T22:11:49.562Z,100.00
2023-01-19T22:14:52.595Z,100.00
2023-01-19T22:17:55.438Z,100.00
2023-01-19T22:21:09.692Z,100.00
2023-01-19T22:24:12.951Z,100.00
2023-01-19T22:27:15.480Z,100.00
2023-01-19T22:30:18.645Z,99.78
2023-01-19T22:33:21.201Z,99.51
2023-01-19T22:36:31.775Z,99.36
2023-01-19T22:39:34.604Z,99.76
2023-01-19T22:42:37.386Z,99.63
2023-01-19T22:45:43.303Z,99.56
2023-01-19T22:48:47.448Z,99.20
2023-01-19T22:51:50.571Z,99.07
2023-01-19T22:54:56.293Z,99.75
2023-01-19T22:57:58.836Z,99.68
2023-01-19T23:01:08.587Z,100.00
2023-01-19T23:04:15.803Z,100.00
2023-01-19T23:07:18.624Z,100.00
2023-01-19T23:10:21.231Z,100.00
2023-01-19T23:13:24.201Z,98.52
2023-01-19T23:16:27.207Z,99.03
2023-01-19T23:19:30.255Z,99.20
2023-01-19T23:22:32.955Z,99.12
2023-01-19T23:25:35.812Z,99.23
2023-01-19T23:28:39.229Z,100.00
2023-01-19T23:31:45.341Z,99.29
2023-01-19T23:34:48.231Z,99.07
2023-01-19T23:37:51.060Z,98.87
2023-01-19T23:40:57.106Z,98.92
2023-01-19T23:44:00.489Z,99.83
2023-01-19T23:47:03.170Z,99.71
2023-01-19T23:50:06.744Z,99.31
2023-01-19T23:53:09.400Z,99.34
2023-01-19T23:56:15.352Z,99.75
2023-01-19T23:59:17.909Z,98.75
